createdAt,value
2019-02-10T00:00:48.361Z,72.27
2019-02-10T00:01:48.329Z,71.96
2019-02-10T00:02:48.309Z,72.17
2019-02-10T00:03:48.303Z,72.89
2019-02-10T00:04:48.289Z,72.89
2019-02-10T00:05:48.301Z,72.78
2019-02-10T00:06:48.298Z,72.78
2019-02-10T00:07:48.257Z,72.78
2019-02-10T00:08:48.248Z,72.58
2019-02-10T00:09:48.244Z,72.89
2019-02-10T00:10:48.255Z,72.89
2019-02-10T00:11:48.211Z,72.38
2019-02-10T00:12:48.209Z,72.89
2019-02-10T00:13:48.195Z,72.27
2019-02-10T00:14:48.183Z,72.27
2019-02-10T00:15:48.228Z,72.58
2019-02-10T00:16:48.162Z,73.50
2019-02-10T00:17:48.143Z,73.19
2019-02-10T00:18:48.144Z,73.19
2019-02-10T00:19:48.129Z,73.09
2019-02-10T00:20:48.111Z,73.09
2019-02-10T00:21:48.139Z,72.89
2019-02-10T00:22:48.096Z,73.09
2019-02-10T00:23:48.090Z,73.54
2019-02-10T00:24:48.069Z,73.71
2019-02-10T00:25:48.133Z,73.61
2019-02-10T00:26:48.071Z,73.81
2019-02-10T00:27:48.034Z,73.44
2019-02-10T00:28:48.025Z,74.22
2019-02-10T00:29:48.016Z,73.64
2019-02-10T00:30:48.020Z,74.57
2019-02-10T00:31:48.017Z,74.53
2019-02-10T00:32:48.006Z,73.95
2019-02-10T00:33:47.969Z,74.12
2019-02-10T00:34:47.961Z,74.15
2019-02-10T00:35:47.950Z,74.63
2019-02-10T00:36:47.966Z,74.02
2019-02-10T00:37:47.932Z,74.57
2019-02-10T00:38:47.911Z,74.57
2019-02-10T00:39:47.898Z,74.33
2019-02-10T00:40:47.901Z,74.22
2019-02-10T00:41:47.904Z,74.57
2019-02-10T00:42:47.883Z,74.63
2019-02-10T00:43:47.852Z,74.57
2019-02-10T00:44:47.840Z,75.04
2019-02-10T00:45:47.837Z,73.91
2019-02-10T00:46:47.851Z,74.15
2019-02-10T00:47:47.818Z,73.74
2019-02-10T00:48:47.802Z,74.87
2019-02-10T00:49:47.789Z,74.77
2019-02-10T00:50:47.775Z,75.18
2019-02-10T00:51:47.809Z,75.18
2019-02-10T00:52:47.765Z,74.22
2019-02-10T00:53:47.775Z,74.57
2019-02-10T00:54:47.730Z,74.95
2019-02-10T00:55:47.723Z,74.95
2019-02-10T00:56:47.755Z,74.46
2019-02-10T00:57:47.731Z,74.77
2019-02-10T00:58:47.720Z,74.63
2019-02-10T00:59:47.690Z,74.63
2019-02-10T01:00:47.677Z,75.59
2019-02-10T01:01:47.656Z,75.80
2019-02-10T01:02:47.669Z,75.49
2019-02-10T01:03:47.697Z,75.70
2019-02-10T01:04:47.638Z,75.59
2019-02-10T01:05:47.665Z,75.90
2019-02-10T01:06:47.703Z,75.39
2019-02-10T01:07:47.622Z,75.80
2019-02-10T01:08:47.655Z,75.59
2019-02-10T01:09:47.625Z,75.70
2019-02-10T01:10:47.568Z,75.70
2019-02-10T01:11:47.582Z,75.70
2019-02-10T01:12:47.553Z,75.29
2019-02-10T01:13:47.522Z,75.59
2019-02-10T01:14:47.516Z,75.70
2019-02-10T01:15:47.515Z,75.39
2019-02-10T01:16:47.558Z,75.76
2019-02-10T01:17:47.502Z,76.11
2019-02-10T01:18:47.475Z,76.21
2019-02-10T01:19:47.450Z,76.11
2019-02-10T01:20:47.448Z,76.31
2019-02-10T01:21:47.431Z,76.01
2019-02-10T01:22:47.460Z,76.31
2019-02-10T01:23:47.418Z,76.01
2019-02-10T01:24:47.402Z,76.21
2019-02-10T01:25:47.401Z,76.11
2019-02-10T01:26:47.435Z,75.70
2019-02-10T01:27:47.421Z,75.90
2019-02-10T01:28:47.435Z,76.11
2019-02-10T01:29:47.343Z,76.11
2019-02-10T01:30:47.332Z,76.21
2019-02-10T01:31:47.321Z,76.42
2019-02-10T01:32:47.317Z,76.21
2019-02-10T01:33:47.325Z,75.59
2019-02-10T01:34:47.289Z,75.59
2019-02-10T01:35:47.274Z,75.67
2019-02-10T01:36:49.858Z,75.59
2019-02-10T01:37:47.303Z,75.59
2019-02-10T01:38:48.261Z,75.67
2019-02-10T01:39:47.236Z,75.49
2019-02-10T01:40:47.249Z,74.98
2019-02-10T01:41:47.294Z,75.46
2019-02-10T01:42:47.197Z,75.29
2019-02-10T01:43:47.209Z,75.59
2019-02-10T01:44:47.178Z,75.70
2019-02-10T01:45:47.193Z,75.15
2019-02-10T01:46:47.163Z,75.39
2019-02-10T01:47:47.137Z,74.57
2019-02-10T01:48:47.202Z,74.98
2019-02-10T01:49:47.124Z,75.39
2019-02-10T01:50:47.112Z,75.35
2019-02-10T01:51:47.104Z,74.22
2019-02-10T01:52:47.084Z,74.33
2019-02-10T01:53:47.104Z,74.57
2019-02-10T01:54:47.072Z,75.56
2019-02-10T01:55:47.054Z,75.46
2019-02-10T01:56:47.041Z,75.39
2019-02-10T01:57:47.045Z,75.46
2019-02-10T01:58:47.075Z,74.95
2019-02-10T01:59:47.009Z,75.59
2019-02-10T02:00:47.000Z,74.84
2019-02-10T02:01:47.000Z,74.43
2019-02-10T02:02:46.976Z,74.95
2019-02-10T02:03:46.970Z,74.77
2019-02-10T02:04:46.973Z,75.04
2019-02-10T02:05:46.984Z,74.67
2019-02-10T02:06:46.937Z,75.39
2019-02-10T02:07:46.922Z,74.87
2019-02-10T02:08:46.917Z,75.25
2019-02-10T02:09:48.752Z,75.70
2019-02-10T02:10:46.902Z,75.08
2019-02-10T02:11:46.902Z,74.95
2019-02-10T02:12:46.898Z,74.77
2019-02-10T02:13:46.856Z,75.18
2019-02-10T02:14:46.870Z,74.84
2019-02-10T02:15:46.834Z,74.63
2019-02-10T02:16:46.832Z,75.35
2019-02-10T02:17:46.810Z,75.18
2019-02-10T02:18:46.854Z,74.26
2019-02-10T02:19:46.784Z,74.74
2019-02-10T02:20:46.776Z,75.15
2019-02-10T02:21:46.762Z,74.26
2019-02-10T02:22:46.754Z,74.46
2019-02-10T02:23:46.783Z,74.22
2019-02-10T02:24:46.736Z,74.36
2019-02-10T02:25:46.723Z,74.26
2019-02-10T02:26:46.731Z,73.85
2019-02-10T02:27:46.699Z,73.95
2019-02-10T02:28:46.685Z,74.02
2019-02-10T02:29:46.713Z,73.81
2019-02-10T02:30:46.670Z,73.91
2019-02-10T02:31:46.658Z,74.02
2019-02-10T02:32:46.640Z,74.95
2019-02-10T02:33:46.627Z,74.53
2019-02-10T02:34:46.642Z,75.08
2019-02-10T02:35:46.606Z,75.56
2019-02-10T02:36:46.591Z,75.80
2019-02-10T02:37:46.586Z,75.67
2019-02-10T02:38:46.600Z,76.11
2019-02-10T02:39:46.611Z,76.62
2019-02-10T02:40:46.559Z,76.79
2019-02-10T02:41:46.545Z,76.38
2019-02-10T02:42:46.602Z,77.20
2019-02-10T02:43:46.535Z,77.10
2019-02-10T02:44:46.514Z,78.13
2019-02-10T02:45:46.516Z,77.96
2019-02-10T02:46:46.503Z,77.75
2019-02-10T02:47:46.488Z,77.65
2019-02-10T02:48:46.462Z,77.65
2019-02-10T02:49:46.456Z,78.06
2019-02-10T02:50:46.478Z,77.75
2019-02-10T02:51:46.436Z,77.75
2019-02-10T02:52:46.424Z,77.86
2019-02-10T02:53:46.420Z,78.06
2019-02-10T02:54:46.397Z,78.58
2019-02-10T02:55:46.422Z,78.10
2019-02-10T02:56:46.381Z,79.23
2019-02-10T02:57:46.424Z,78.10
2019-02-10T02:58:46.358Z,78.72
2019-02-10T02:59:46.345Z,78.51
2019-02-10T03:00:46.342Z,78.06
2019-02-10T03:01:46.367Z,78.51
2019-02-10T03:02:46.334Z,78.41
2019-02-10T03:03:46.331Z,78.51
2019-02-10T03:04:46.305Z,78.51
2019-02-10T03:05:46.271Z,78.61
2019-02-10T03:06:46.299Z,78.72
2019-02-10T03:07:46.302Z,78.61
2019-02-10T03:08:46.276Z,79.23
2019-02-10T03:09:46.241Z,79.23
2019-02-10T03:10:46.219Z,79.03
2019-02-10T03:11:46.323Z,79.85
2019-02-10T03:12:46.214Z,79.85
2019-02-10T03:13:46.193Z,80.47
2019-02-10T03:14:46.201Z,80.05
2019-02-10T03:15:46.167Z,80.47
2019-02-10T03:16:46.157Z,81.39
2019-02-10T03:17:47.769Z,81.39
2019-02-10T03:18:52.986Z,81.29
2019-02-10T03:19:47.119Z,81.39
2019-02-10T03:20:46.110Z,81.49
2019-02-10T03:21:46.097Z,81.91
2019-02-10T03:22:46.125Z,82.11
2019-02-10T03:23:46.079Z,82.42
2019-02-10T03:24:46.060Z,82.35
2019-02-10T03:25:46.069Z,82.77
2019-02-10T03:26:46.105Z,82.77
2019-02-10T03:27:46.034Z,82.77
2019-02-10T03:28:46.018Z,83.07
2019-02-10T03:29:46.003Z,82.35
2019-02-10T03:30:46.019Z,83.28
2019-02-10T03:31:46.013Z,83.90
2019-02-10T03:32:45.997Z,83.49
2019-02-10T03:33:45.986Z,84.11
2019-02-10T03:34:46.022Z,84.00
2019-02-10T03:35:45.940Z,83.59
2019-02-10T03:36:45.964Z,83.07
2019-02-10T03:37:45.911Z,84.14
2019-02-10T03:38:45.914Z,83.90
2019-02-10T03:39:45.899Z,83.80
2019-02-10T03:40:45.882Z,84.21
2019-02-10T03:41:45.912Z,83.39
2019-02-10T03:42:45.863Z,83.90
2019-02-10T03:43:45.872Z,83.59
2019-02-10T03:44:45.838Z,83.73
2019-02-10T03:45:45.831Z,83.84
2019-02-10T03:46:45.844Z,83.94
2019-02-10T03:47:45.812Z,84.00
2019-02-10T03:48:45.838Z,83.90
2019-02-10T03:49:45.780Z,83.73
2019-02-10T03:50:45.797Z,83.73
2019-02-10T03:51:45.804Z,83.94
2019-02-10T03:52:45.777Z,84.35
2019-02-10T03:53:45.738Z,84.35
2019-02-10T03:54:45.795Z,84.25
2019-02-10T03:55:45.728Z,84.14
2019-02-10T03:56:45.718Z,84.56
2019-02-10T03:57:45.698Z,84.25
2019-02-10T03:58:45.680Z,84.56
2019-02-10T03:59:45.744Z,84.87
2019-02-10T04:00:45.683Z,84.66
2019-02-10T04:01:45.663Z,84.56
2019-02-10T04:02:45.693Z,84.77
2019-02-10T04:03:45.656Z,84.35
2019-02-10T04:04:45.612Z,84.21
2019-02-10T04:05:45.612Z,84.45
2019-02-10T04:06:45.644Z,84.05
2019-02-10T04:07:45.578Z,84.87
2019-02-10T04:08:45.587Z,84.77
2019-02-10T04:09:45.563Z,85.07
2019-02-10T04:10:45.621Z,84.35
2019-02-10T04:11:45.588Z,84.35
2019-02-10T04:12:45.533Z,84.35
2019-02-10T04:13:45.543Z,84.66
2019-02-10T04:14:45.502Z,84.42
2019-02-10T04:15:45.521Z,84.31
2019-02-10T04:16:45.530Z,84.11
2019-02-10T04:17:45.482Z,84.87
2019-02-10T04:18:45.487Z,84.52
2019-02-10T04:19:45.450Z,84.35
2019-02-10T04:20:45.439Z,84.35
2019-02-10T04:21:45.424Z,84.05
2019-02-10T04:22:45.431Z,84.21
2019-02-10T04:23:45.432Z,84.42
2019-02-10T04:24:45.400Z,84.31
2019-02-10T04:25:45.448Z,84.42
2019-02-10T04:26:45.396Z,84.62
2019-02-10T04:27:45.359Z,84.42
2019-02-10T04:28:45.345Z,84.42
2019-02-10T04:29:46.344Z,84.14
2019-02-10T04:30:45.323Z,84.56
2019-02-10T04:31:45.308Z,84.11
2019-02-10T04:32:45.337Z,84.52
2019-02-10T04:33:45.299Z,84.31
2019-02-10T04:34:45.338Z,84.31
2019-02-10T04:35:45.279Z,84.31
2019-02-10T04:36:45.275Z,84.42
2019-02-10T04:37:46.508Z,84.31
2019-02-10T04:38:45.243Z,84.35
2019-02-10T04:39:45.357Z,84.21
2019-02-10T04:40:45.269Z,84.52
2019-02-10T04:41:45.243Z,85.24
2019-02-10T04:42:45.180Z,84.21
2019-02-10T04:43:45.174Z,84.42
2019-02-10T04:44:45.200Z,84.11
2019-02-10T04:45:45.161Z,84.21
2019-02-10T04:46:45.142Z,84.31
2019-02-10T04:47:45.123Z,84.42
2019-02-10T04:48:45.172Z,84.52
2019-02-10T04:49:45.116Z,84.42
2019-02-10T04:50:45.126Z,84.11
2019-02-10T04:51:45.094Z,84.62
2019-02-10T04:52:45.077Z,84.83
2019-02-10T04:53:45.064Z,84.62
2019-02-10T04:54:45.058Z,84.42
2019-02-10T04:55:45.080Z,85.03
2019-02-10T04:56:45.070Z,84.42
2019-02-10T04:57:45.031Z,84.42
2019-02-10T04:58:45.046Z,84.52
2019-02-10T04:59:45.010Z,84.93
2019-02-10T05:00:44.984Z,85.14
2019-02-10T05:01:45.019Z,84.31
2019-02-10T05:02:45.060Z,85.44
2019-02-10T05:03:44.958Z,85.03
2019-02-10T05:04:44.944Z,85.14
2019-02-10T05:05:44.952Z,85.24
2019-02-10T05:06:44.941Z,84.93
2019-02-10T05:07:53.067Z,84.93
2019-02-10T05:08:47.813Z,85.55
2019-02-10T05:09:45.121Z,85.34
2019-02-10T05:10:44.876Z,86.16
2019-02-10T05:11:44.892Z,85.44
2019-02-10T05:12:44.883Z,85.14
2019-02-10T05:13:44.910Z,85.65
2019-02-10T05:14:44.904Z,85.44
2019-02-10T05:15:44.817Z,85.34
2019-02-10T05:16:45.066Z,85.65
2019-02-10T05:17:44.798Z,85.65
2019-02-10T05:18:45.298Z,85.55
2019-02-10T05:19:44.817Z,85.44
2019-02-10T05:20:44.778Z,85.44
2019-02-10T05:21:44.750Z,86.06
2019-02-10T05:22:44.786Z,85.86
2019-02-10T05:23:44.758Z,85.86
2019-02-10T05:24:44.765Z,86.37
2019-02-10T05:25:44.737Z,85.75
2019-02-10T05:26:44.727Z,86.27
2019-02-10T05:27:44.684Z,86.06
2019-02-10T05:28:44.697Z,86.16
2019-02-10T05:29:44.670Z,85.96
2019-02-10T05:30:44.656Z,86.16
2019-02-10T05:31:44.636Z,86.06
2019-02-10T05:32:44.656Z,86.27
2019-02-10T05:33:44.692Z,86.23
2019-02-10T05:34:44.601Z,86.23
2019-02-10T05:35:44.601Z,86.13
2019-02-10T05:36:44.595Z,86.13
2019-02-10T05:37:44.570Z,85.68
2019-02-10T05:38:44.595Z,85.16
2019-02-10T05:39:44.590Z,84.75
2019-02-10T05:40:44.537Z,84.61
2019-02-10T05:41:44.541Z,84.09
2019-02-10T05:42:44.550Z,84.30
2019-02-10T05:43:44.811Z,83.37
2019-02-10T05:44:44.501Z,83.13
2019-02-10T05:45:44.530Z,83.13
2019-02-10T05:46:44.479Z,82.31
2019-02-10T05:47:44.466Z,82.62
2019-02-10T05:48:44.518Z,82.31
2019-02-10T05:49:44.438Z,82.62
2019-02-10T05:50:44.434Z,82.78
2019-02-10T05:51:44.430Z,82.57
2019-02-10T05:52:44.413Z,82.57
2019-02-10T05:53:44.417Z,82.99
2019-02-10T05:54:44.409Z,83.09
2019-02-10T05:55:44.404Z,82.47
2019-02-10T05:56:44.365Z,82.57
2019-02-10T05:57:44.351Z,82.37
2019-02-10T05:58:44.357Z,82.27
2019-02-10T05:59:44.333Z,81.86
2019-02-10T06:00:44.373Z,81.71
2019-02-10T06:01:44.329Z,81.82
2019-02-10T06:02:44.329Z,81.76
2019-02-10T06:03:44.308Z,82.06
2019-02-10T06:04:44.293Z,81.86
2019-02-10T06:05:44.306Z,81.51
2019-02-10T06:06:44.246Z,81.82
2019-02-10T06:07:44.236Z,82.03
2019-02-10T06:08:44.239Z,81.71
2019-02-10T06:09:45.790Z,81.82
2019-02-10T06:10:44.210Z,81.30
2019-02-10T06:11:44.200Z,81.41
2019-02-10T06:12:44.213Z,81.41
2019-02-10T06:13:44.169Z,82.13
2019-02-10T06:14:44.209Z,81.82
2019-02-10T06:15:44.156Z,81.71
2019-02-10T06:16:44.137Z,81.71
2019-02-10T06:17:44.141Z,81.92
2019-02-10T06:18:44.134Z,81.92
2019-02-10T06:19:45.786Z,81.30
2019-02-10T06:20:44.090Z,82.13
2019-02-10T06:21:44.077Z,81.30
2019-02-10T06:22:44.084Z,81.30
2019-02-10T06:23:44.074Z,82.03
2019-02-10T06:24:44.082Z,81.37
2019-02-10T06:25:44.033Z,81.82
2019-02-10T06:26:44.087Z,81.78
2019-02-10T06:27:44.012Z,82.09
2019-02-10T06:28:44.002Z,81.57
2019-02-10T06:29:45.801Z,81.68
2019-02-10T06:30:43.975Z,81.82
2019-02-10T06:31:43.988Z,81.88
2019-02-10T06:32:43.956Z,82.09
2019-02-10T06:33:43.942Z,81.88
2019-02-10T06:34:43.952Z,81.27
2019-02-10T06:35:43.935Z,81.41
2019-02-10T06:36:43.922Z,81.27
2019-02-10T06:37:43.899Z,81.37
2019-02-10T06:38:43.894Z,81.27
2019-02-10T06:39:45.801Z,81.57
2019-02-10T06:40:43.870Z,81.68
2019-02-10T06:41:43.860Z,82.29
2019-02-10T06:42:43.858Z,81.68
2019-02-10T06:43:43.858Z,82.50
2019-02-10T06:44:43.880Z,82.29
2019-02-10T06:45:43.916Z,82.09
2019-02-10T06:46:43.826Z,83.01
2019-02-10T06:47:43.790Z,82.60
2019-02-10T06:48:43.816Z,82.60
2019-02-10T06:49:43.768Z,82.60
2019-02-10T06:50:43.808Z,82.60
2019-02-10T06:51:43.741Z,82.81
2019-02-10T06:52:43.737Z,82.40
2019-02-10T06:53:43.743Z,82.09
2019-02-10T06:54:43.738Z,82.50
2019-02-10T06:55:43.757Z,81.99
2019-02-10T06:56:43.809Z,82.40
2019-02-10T06:57:43.717Z,82.19
2019-02-10T06:58:43.677Z,83.01
2019-02-10T06:59:43.692Z,82.50
2019-02-10T07:00:43.645Z,82.50
2019-02-10T07:01:43.655Z,82.91
2019-02-10T07:02:43.664Z,82.81
2019-02-10T07:03:43.619Z,82.19
2019-02-10T07:04:43.626Z,82.64
2019-02-10T07:05:43.598Z,82.50
2019-02-10T07:06:43.599Z,82.50
2019-02-10T07:07:43.571Z,81.99
2019-02-10T07:08:43.554Z,82.19
2019-02-10T07:09:43.555Z,82.19
2019-02-10T07:10:43.532Z,82.50
2019-02-10T07:11:43.551Z,81.68
2019-02-10T07:12:43.514Z,81.68
2019-02-10T07:13:43.498Z,81.99
2019-02-10T07:14:43.494Z,81.57
2019-02-10T07:15:43.480Z,81.27
2019-02-10T07:16:43.488Z,81.06
2019-02-10T07:17:43.473Z,80.86
2019-02-10T07:18:43.485Z,80.92
2019-02-10T07:19:43.431Z,81.02
2019-02-10T07:20:43.423Z,81.02
2019-02-10T07:21:43.435Z,81.02
2019-02-10T07:22:43.397Z,80.35
2019-02-10T07:23:43.394Z,80.62
2019-02-10T07:24:43.376Z,80.00
2019-02-10T07:25:43.364Z,80.10
2019-02-10T07:26:43.390Z,80.31
2019-02-10T07:27:43.357Z,80.31
2019-02-10T07:28:43.329Z,79.69
2019-02-10T07:29:43.318Z,79.59
2019-02-10T07:30:43.314Z,79.59
2019-02-10T07:31:43.298Z,79.38
2019-02-10T07:32:43.316Z,79.28
2019-02-10T07:33:43.279Z,79.28
2019-02-10T07:34:48.248Z,78.97
2019-02-10T07:35:44.258Z,78.74
2019-02-10T07:36:43.273Z,78.97
2019-02-10T07:37:43.257Z,78.46
2019-02-10T07:38:43.220Z,78.22
2019-02-10T07:39:43.206Z,77.74
2019-02-10T07:40:43.200Z,77.84
2019-02-10T07:41:43.201Z,78.32
2019-02-10T07:42:43.220Z,78.22
2019-02-10T07:43:43.176Z,77.50
2019-02-10T07:44:43.158Z,78.42
2019-02-10T07:45:43.141Z,78.42
2019-02-10T07:46:43.136Z,78.12
2019-02-10T07:47:43.122Z,78.53
2019-02-10T07:48:43.139Z,78.42
2019-02-10T07:49:43.102Z,78.42
2019-02-10T07:50:43.104Z,78.12
2019-02-10T07:51:43.108Z,78.02
2019-02-10T07:52:43.095Z,78.63
2019-02-10T07:53:43.093Z,77.81
2019-02-10T07:54:43.043Z,78.02
2019-02-10T07:55:43.033Z,77.81
2019-02-10T07:56:43.066Z,77.81
2019-02-10T07:57:43.009Z,77.81
2019-02-10T07:58:43.021Z,77.91
2019-02-10T07:59:44.809Z,78.94
2019-02-10T08:00:42.984Z,78.32
2019-02-10T08:01:42.977Z,78.94
2019-02-10T08:02:42.962Z,78.94
2019-02-10T08:03:42.939Z,78.63
2019-02-10T08:04:42.958Z,78.83
2019-02-10T08:05:42.992Z,79.04
2019-02-10T08:06:42.921Z,78.74
2019-02-10T08:07:42.932Z,79.24
2019-02-10T08:08:46.588Z,79.24
2019-02-10T08:09:44.807Z,79.14
2019-02-10T08:10:42.869Z,79.14
2019-02-10T08:11:42.865Z,79.45
2019-02-10T08:12:42.843Z,79.35
2019-02-10T08:13:42.878Z,79.35
2019-02-10T08:14:42.860Z,79.14
2019-02-10T08:15:42.843Z,79.24
2019-02-10T08:16:42.809Z,79.31
2019-02-10T08:17:42.833Z,79.41
2019-02-10T08:18:42.774Z,79.62
2019-02-10T08:19:42.775Z,79.72
2019-02-10T08:20:42.788Z,79.41
2019-02-10T08:21:42.749Z,78.70
2019-02-10T08:22:42.731Z,78.59
2019-02-10T08:23:42.752Z,78.80
2019-02-10T08:26:11.765Z,78.80
2019-02-10T08:26:18.857Z,77.98
2019-02-10T08:27:12.139Z,78.66
2019-02-10T08:28:12.116Z,78.86
2019-02-10T08:34:22.465Z,77.94
2019-02-10T08:36:22.480Z,78.05
2019-02-10T09:13:15.172Z,79.27
2019-02-10T09:14:15.135Z,79.48
2019-02-10T09:15:15.133Z,79.38
2019-02-10T09:16:15.112Z,79.38
2019-02-10T09:17:15.114Z,79.68
2019-02-10T09:18:15.091Z,79.58
2019-02-10T09:19:15.108Z,79.48
2019-02-10T09:20:15.067Z,79.38
2019-02-10T09:21:15.073Z,79.89
2019-02-10T09:22:15.045Z,79.89
2019-02-10T09:23:15.040Z,79.68
2019-02-10T09:24:15.064Z,79.79
2019-02-10T09:25:15.064Z,79.89
2019-02-10T09:26:15.020Z,80.40
2019-02-10T09:27:15.042Z,80.40
2019-02-10T09:28:14.984Z,79.99
2019-02-10T09:29:15.010Z,80.91
2019-02-10T09:30:14.976Z,80.81
2019-02-10T09:31:15.070Z,80.51
2019-02-10T09:32:14.943Z,80.91
2019-02-10T09:33:14.995Z,80.91
2019-02-10T09:34:14.924Z,81.22
2019-02-10T09:35:14.927Z,81.22
2019-02-10T09:36:14.900Z,81.05
2019-02-10T09:37:14.884Z,81.52
2019-02-10T09:38:14.908Z,81.94
2019-02-10T09:39:14.875Z,80.81
2019-02-10T09:40:14.918Z,80.81
2019-02-10T09:41:14.850Z,81.63
2019-02-10T09:42:14.830Z,81.63
2019-02-10T09:43:14.880Z,81.73
2019-02-10T09:44:14.837Z,82.65
2019-02-10T09:45:14.850Z,81.73
2019-02-10T09:46:14.803Z,81.94
2019-02-10T09:47:14.779Z,82.86
2019-02-10T09:48:14.768Z,81.94
2019-02-10T09:49:14.767Z,81.84
2019-02-10T09:50:14.741Z,82.96
2019-02-10T09:51:14.925Z,82.90
2019-02-10T09:52:14.769Z,82.79
2019-02-10T09:53:14.820Z,82.79
2019-02-10T09:54:14.787Z,82.90
2019-02-10T09:55:14.697Z,83.10
2019-02-10T09:56:14.801Z,82.90
2019-02-10T09:57:14.673Z,83.20
2019-02-10T09:58:14.686Z,83.51
2019-02-10T09:59:14.676Z,83.20
2019-02-10T10:00:14.637Z,82.39
2019-02-10T10:01:14.884Z,82.86
2019-02-10T10:02:14.612Z,82.45
2019-02-10T10:03:14.600Z,83.17
2019-02-10T10:04:14.596Z,83.27
2019-02-10T10:05:14.720Z,82.86
2019-02-10T10:06:14.635Z,82.65
2019-02-10T10:07:14.568Z,82.24
2019-02-10T10:08:14.594Z,82.86
2019-02-10T10:09:19.349Z,82.14
2019-02-10T10:10:15.677Z,81.63
2019-02-10T10:11:14.551Z,81.52
2019-02-10T10:12:14.499Z,82.35
2019-02-10T10:13:14.489Z,81.94
2019-02-10T10:14:14.468Z,81.52
2019-02-10T10:15:14.473Z,81.43
2019-02-10T10:16:14.448Z,82.24
2019-02-10T10:17:14.469Z,81.12
2019-02-10T10:18:14.444Z,80.91
2019-02-10T10:19:14.423Z,81.32
2019-02-10T10:20:14.404Z,81.94
2019-02-10T10:21:14.428Z,80.81
2019-02-10T10:22:14.407Z,80.71
2019-02-10T10:23:14.371Z,81.22
2019-02-10T10:24:14.382Z,81.12
2019-02-10T10:25:14.348Z,81.12
2019-02-10T10:26:14.362Z,81.32
2019-02-10T10:27:14.428Z,81.94
2019-02-10T10:28:14.407Z,81.01
2019-02-10T10:29:14.321Z,81.43
2019-02-10T10:30:14.318Z,81.18
2019-02-10T10:31:14.286Z,80.81
2019-02-10T10:32:14.451Z,80.05
2019-02-10T10:33:14.438Z,80.57
2019-02-10T10:34:14.321Z,80.46
2019-02-10T10:35:14.445Z,80.57
2019-02-10T10:36:14.286Z,80.26
2019-02-10T10:37:14.400Z,80.05
2019-02-10T10:38:14.405Z,79.44
2019-02-10T10:39:14.514Z,79.71
2019-02-10T10:40:14.366Z,79.30
2019-02-10T10:41:14.274Z,79.82
2019-02-10T10:42:14.263Z,79.75
2019-02-10T10:43:14.588Z,79.61
2019-02-10T10:44:14.201Z,79.61
2019-02-10T10:45:14.226Z,79.20
2019-02-10T10:46:14.165Z,79.71
2019-02-10T10:47:14.312Z,79.20
2019-02-10T10:48:14.238Z,79.20
2019-02-10T10:49:14.156Z,78.89
2019-02-10T10:50:14.070Z,79.50
2019-02-10T10:51:14.057Z,79.41
2019-02-10T10:52:14.046Z,79.91
2019-02-10T10:53:14.084Z,80.12
2019-02-10T10:54:14.032Z,79.41
2019-02-10T10:55:14.017Z,80.22
2019-02-10T10:56:14.002Z,79.10
2019-02-10T10:57:13.988Z,78.69
2019-02-10T10:58:13.988Z,79.00
2019-02-10T10:59:14.004Z,79.16
2019-02-10T11:00:13.955Z,79.10
2019-02-10T11:01:13.952Z,79.20
2019-02-10T11:02:13.938Z,79.82
2019-02-10T11:03:13.925Z,79.50
2019-02-10T11:04:13.934Z,79.30
2019-02-10T11:05:14.958Z,79.54
2019-02-10T11:06:13.902Z,80.22
2019-02-10T11:07:13.881Z,79.61
2019-02-10T11:08:13.870Z,80.02
2019-02-10T11:09:13.877Z,79.71
2019-02-10T11:10:13.848Z,80.12
2019-02-10T11:11:13.836Z,79.82
2019-02-10T11:12:13.841Z,79.82
2019-02-10T11:13:13.890Z,80.33
2019-02-10T11:14:13.825Z,80.26
2019-02-10T11:15:13.798Z,80.53
2019-02-10T11:16:13.779Z,80.94
2019-02-10T11:17:14.894Z,80.33
2019-02-10T11:18:13.872Z,80.77
2019-02-10T11:19:13.865Z,80.98
2019-02-10T11:20:13.749Z,80.77
2019-02-10T11:21:13.779Z,80.77
2019-02-10T11:22:13.805Z,80.88
2019-02-10T11:23:13.742Z,80.67
2019-02-10T11:24:13.702Z,80.77
2019-02-10T11:25:13.711Z,81.08
2019-02-10T11:26:13.702Z,81.29
2019-02-10T11:27:13.654Z,80.98
2019-02-10T11:28:13.653Z,81.29
2019-02-10T11:29:13.638Z,81.49
2019-02-10T11:30:13.770Z,80.67
2019-02-10T11:31:13.620Z,80.77
2019-02-10T11:32:13.601Z,80.88
2019-02-10T11:33:13.603Z,81.29
2019-02-10T11:34:13.579Z,80.98
2019-02-10T11:35:13.593Z,81.24
2019-02-10T11:36:13.556Z,80.77
2019-02-10T11:37:13.542Z,80.88
2019-02-10T11:38:13.534Z,81.04
2019-02-10T11:39:13.521Z,81.15
2019-02-10T11:40:13.535Z,81.24
2019-02-10T11:41:13.507Z,80.98
2019-02-10T11:42:13.490Z,80.22
2019-02-10T11:43:13.477Z,81.08
2019-02-10T11:44:13.471Z,81.24
2019-02-10T11:45:13.481Z,80.94
2019-02-10T11:46:13.450Z,80.94
2019-02-10T11:47:13.434Z,80.74
2019-02-10T11:48:13.422Z,81.04
2019-02-10T11:49:13.412Z,80.83
2019-02-10T11:50:13.396Z,80.02
2019-02-10T11:51:13.487Z,80.33
2019-02-10T11:52:13.397Z,80.02
2019-02-10T11:53:13.423Z,79.61
2019-02-10T11:54:13.353Z,80.02
2019-02-10T11:55:13.348Z,81.15
2019-02-10T11:56:13.437Z,79.41
2019-02-10T11:57:13.330Z,77.97
2019-02-10T11:58:13.308Z,78.69
2019-02-10T11:59:14.110Z,77.87
2019-02-10T12:00:13.289Z,78.59
2019-02-10T12:01:13.307Z,78.17
2019-02-10T12:02:13.267Z,78.08
2019-02-10T12:03:13.259Z,77.67
2019-02-10T12:04:13.243Z,78.08
2019-02-10T12:05:13.235Z,77.97
2019-02-10T12:06:13.244Z,77.36
2019-02-10T12:07:13.211Z,78.28
2019-02-10T12:08:13.198Z,78.28
2019-02-10T12:09:13.187Z,79.20
2019-02-10T12:10:13.186Z,77.97
2019-02-10T12:11:13.188Z,78.28
2019-02-10T12:12:13.158Z,75.93
2019-02-10T12:13:13.143Z,76.43
2019-02-10T12:14:13.132Z,76.43
2019-02-10T12:15:13.120Z,76.64
2019-02-10T12:16:13.106Z,76.13
2019-02-10T12:17:13.117Z,75.42
2019-02-10T12:18:13.085Z,74.80
2019-02-10T12:19:13.084Z,74.08
2019-02-10T12:20:13.064Z,74.90
2019-02-10T12:21:13.067Z,74.39
2019-02-10T12:22:13.035Z,74.80
2019-02-10T12:23:13.026Z,75.72
2019-02-10T12:24:13.013Z,75.62
2019-02-10T12:25:13.010Z,75.45
2019-02-10T12:26:13.052Z,76.06
2019-02-10T12:27:12.985Z,75.45
2019-02-10T12:28:13.007Z,75.45
2019-02-10T12:29:12.964Z,75.14
2019-02-10T12:30:12.947Z,74.73
2019-02-10T12:31:12.935Z,74.53
2019-02-10T12:32:12.948Z,75.04
2019-02-10T12:33:12.916Z,74.11
2019-02-10T12:34:12.910Z,75.14
2019-02-10T12:35:12.945Z,75.65
2019-02-10T12:36:12.880Z,75.86
2019-02-10T12:37:12.930Z,75.04
2019-02-10T12:38:12.860Z,75.35
2019-02-10T12:39:12.918Z,75.24
2019-02-10T12:40:12.910Z,75.04
2019-02-10T12:42:14.360Z,76.06
2019-02-10T12:42:14.685Z,75.55
2019-02-10T12:43:14.668Z,75.86
2019-02-10T12:44:14.659Z,75.79
2019-02-10T12:45:14.646Z,76.17
2019-02-10T12:46:14.632Z,75.55
2019-02-10T12:47:14.643Z,75.69
2019-02-10T12:48:14.641Z,76.06
2019-02-10T12:49:14.597Z,76.31
2019-02-10T12:50:14.588Z,75.89
2019-02-10T12:51:14.577Z,75.59
2019-02-10T12:52:14.570Z,75.79
2019-02-10T12:53:14.597Z,75.79
2019-02-10T12:54:14.572Z,74.46
2019-02-10T12:55:14.535Z,74.56
2019-02-10T12:56:14.523Z,75.28
2019-02-10T12:57:14.509Z,74.97
2019-02-10T12:58:14.589Z,75.38
2019-02-10T12:59:14.488Z,75.28
2019-02-10T13:00:14.476Z,75.38
2019-02-10T13:01:14.486Z,75.48
2019-02-10T13:02:14.464Z,75.79
2019-02-10T13:03:14.485Z,75.89
2019-02-10T13:04:14.435Z,76.10
2019-02-10T13:05:14.446Z,76.31
2019-02-10T13:06:14.414Z,76.61
2019-02-10T13:20:48.146Z,75.04
2019-02-10T13:21:48.054Z,74.22
2019-02-10T13:22:48.050Z,73.50
2019-02-10T13:23:48.051Z,72.28
2019-02-10T13:24:48.060Z,71.83
2019-02-10T13:25:48.014Z,71.73
2019-02-10T13:26:48.004Z,71.70
2019-02-10T13:27:47.995Z,70.57
2019-02-10T13:28:48.004Z,71.08
2019-02-10T13:29:47.979Z,70.37
2019-02-10T13:30:47.964Z,71.39
2019-02-10T13:31:47.974Z,71.08
2019-02-10T13:32:47.942Z,71.29
2019-02-10T13:33:47.953Z,71.62
2019-02-10T13:34:47.922Z,70.61
2019-02-10T13:35:47.906Z,70.29
2019-02-10T13:36:47.894Z,71.15
2019-02-10T13:37:47.960Z,70.84
2019-02-10T13:38:47.869Z,71.22
2019-02-10T13:39:47.882Z,71.56
2019-02-10T13:40:47.859Z,71.04
2019-02-10T13:41:47.839Z,71.56
2019-02-10T13:43:33.746Z,71.66
2019-02-10T13:43:47.824Z,71.36
2019-02-10T13:44:47.866Z,71.36
2019-02-10T14:01:45.724Z,71.36
2019-02-10T14:02:45.683Z,71.45
2019-02-10T14:03:45.671Z,71.36
2019-02-10T14:04:45.685Z,71.39